Time,TemperatureF,DewpointF,PressureIn,WindDirection,WindDirectionDegrees,WindSpeedMPH,WindSpeedGustMPH,Humidity,HourlyPrecipIn,Conditions,Clouds,dailyrainin,SolarRadiationWatts/m^2,SoftwareType,DateUTC
2013-10-22 00:08:00,61.2,40.0,29.71,South,179,4.0,22.0,45,0.00,,,0.00,0,weatherlink.com 1.10,2013-10-22 04:08:00,
2013-10-22 00:23:00,60.8,40.0,29.72,NW,322,3.0,14.0,46,0.00,,,0.00,0,weatherlink.com 1.10,2013-10-22 04:23:00,
2013-10-22 00:38:00,60.5,40.0,29.71,WNW,289,7.0,14.0,48,0.00,,,0.00,0,weatherlink.com 1.10,2013-10-22 04:38:00,
2013-10-22 00:53:00,60.0,41.0,29.71,South,178,3.0,13.0,49,0.00,,,0.00,0,weatherlink.com 1.10,2013-10-22 04:53:00,
2013-10-22 01:08:00,59.7,41.0,29.71,NNW,333,2.0,9.0,50,0.00,,,0.00,0,weatherlink.com 1.10,2013-10-22 05:08:00,
2013-10-22 01:23:00,59.3,40.0,29.71,ENE,71,4.0,13.0,50,0.00,,,0.00,0,weatherlink.com 1.10,2013-10-22 05:23:00,
2013-10-22 01:38:00,58.8,40.0,29.71,SW,217,11.0,11.0,51,0.00,,,0.00,0,weatherlink.com 1.10,2013-10-22 05:38:00,
2013-10-22 01:53:00,58.2,41.0,29.71,SSE,166,2.0,6.0,53,0.00,,,0.00,0,weatherlink.com 1.10,2013-10-22 05:53:00,
2013-10-22 02:08:00,57.8,42.0,29.71,WSW,237,7.0,9.0,56,0.00,,,0.00,0,weatherlink.com 1.10,2013-10-22 06:08:00,
2013-10-22 02:24:00,56.3,45.0,29.71,WSW,251,5.0,9.0,65,0.00,,,0.00,0,weatherlink.com 1.10,2013-10-22 06:24:00,
2013-10-22 02:39:00,54.8,46.0,29.71,West,260,4.0,10.0,72,0.00,,,0.00,0,weatherlink.com 1.10,2013-10-22 06:39:00,
2013-10-22 02:54:00,54.2,46.0,29.71,WSW,243,5.0,12.0,74,0.00,,,0.00,0,weatherlink.com 1.10,2013-10-22 06:54:00,
2013-10-22 03:09:00,53.8,46.0,29.70,SW,234,4.0,10.0,76,0.00,,,0.00,0,weatherlink.com 1.10,2013-10-22 07:09:00,
2013-10-22 03:24:00,53.3,46.0,29.70,West,277,4.0,11.0,76,0.00,,,0.00,0,weatherlink.com 1.10,2013-10-22 07:24:00,
2013-10-22 03:39:00,52.8,46.0,29.70,SW,229,3.0,10.0,78,0.00,,,0.00,0,weatherlink.com 1.10,2013-10-22 07:39:00,
2013-10-22 03:54:00,52.3,46.0,29.70,West,276,3.0,8.0,80,0.00,,,0.00,0,weatherlink.com 1.10,2013-10-22 07:54:00,
2013-10-22 04:09:00,51.8,47.0,29.69,WSW,244,3.0,8.0,82,0.00,,,0.00,0,weatherlink.com 1.10,2013-10-22 08:09:00,
2013-10-22 04:24:00,51.2,47.0,29.69,SSW,209,2.0,8.0,85,0.00,,,0.00,0,weatherlink.com 1.10,2013-10-22 08:24:00,
2013-10-22 04:39:00,50.7,47.0,29.69,SSE,154,2.0,3.0,87,0.00,,,0.00,0,weatherlink.com 1.10,2013-10-22 08:39:00,
2013-10-22 04:54:00,50.5,47.0,29.69,South,171,5.0,6.0,88,0.01,,,0.01,0,weatherlink.com 1.10,2013-10-22 08:54:00,
2013-10-22 05:09:00,50.3,47.0,29.68,SE,142,1.0,9.0,88,0.01,,,0.01,0,weatherlink.com 1.10,2013-10-22 09:09:00,
2013-10-22 05:24:00,50.1,47.0,29.68,SSE,153,2.0,7.0,89,0.02,,,0.02,0,weatherlink.com 1.10,2013-10-22 09:24:00,
2013-10-22 05:39:00,50.0,47.0,29.67,ESE,120,5.0,7.0,89,0.03,,,0.03,0,weatherlink.com 1.10,2013-10-22 09:39:00,
2013-10-22 05:54:00,49.8,47.0,29.67,East,95,2.0,7.0,90,0.04,,,0.05,0,weatherlink.com 1.10,2013-10-22 09:54:00,
2013-10-22 06:09:00,49.7,47.0,29.66,SE,129,4.0,8.0,91,0.05,,,0.06,0,weatherlink.com 1.10,2013-10-22 10:09:00,
2013-10-22 06:24:00,49.6,47.0,29.65,South,178,5.0,7.0,91,0.04,,,0.06,0,weatherlink.com 1.10,2013-10-22 10:24:00,
2013-10-22 06:39:00,49.7,47.0,29.65,South,186,5.0,6.0,91,0.03,,,0.06,0,weatherlink.com 1.10,2013-10-22 10:39:00,
2013-10-22 06:54:00,49.9,47.0,29.64,South,171,6.0,11.0,91,0.01,,,0.06,0,weatherlink.com 1.10,2013-10-22 10:54:00,
2013-10-22 07:09:00,50.1,48.0,29.64,SE,126,3.0,10.0,91,0.00,,,0.06,0,weatherlink.com 1.10,2013-10-22 11:09:00,
2013-10-22 07:24:00,50.2,47.0,29.63,South,190,4.0,11.0,90,0.01,,,0.07,0,weatherlink.com 1.10,2013-10-22 11:24:00,
2013-10-22 07:39:00,50.2,47.0,29.63,ESE,107,9.0,12.0,90,0.01,,,0.07,0,weatherlink.com 1.10,2013-10-22 11:39:00,
2013-10-22 07:54:00,50.2,47.0,29.63,ESE,117,9.0,11.0,90,0.02,,,0.08,0,weatherlink.com 1.10,2013-10-22 11:54:00,
2013-10-22 08:09:00,50.2,48.0,29.64,ENE,60,4.0,7.0,91,0.03,,,0.09,14,weatherlink.com 1.10,2013-10-22 12:09:00,
2013-10-22 08:25:00,50.0,48.0,29.65,SW,231,1.0,7.0,91,0.08,,,0.15,5,weatherlink.com 1.10,2013-10-22 12:25:00,
2013-10-22 08:40:00,48.4,45.0,29.66,WSW,250,11.0,19.0,87,0.11,,,0.18,26,weatherlink.com 1.10,2013-10-22 12:40:00,
2013-10-22 08:55:00,47.0,43.0,29.67,West,263,5.0,18.0,85,0.10,,,0.18,14,weatherlink.com 1.10,2013-10-22 12:55:00,
2013-10-22 09:10:00,46.3,41.0,29.69,WSW,254,13.0,23.0,82,0.10,,,0.19,11,weatherlink.com 1.10,2013-10-22 13:10:00,
2013-10-22 09:25:00,45.3,40.0,29.69,West,269,6.0,17.0,81,0.04,,,0.19,35,weatherlink.com 1.10,2013-10-22 13:25:00,
2013-10-22 09:40:00,44.8,40.0,29.70,SW,222,5.0,9.0,82,0.01,,,0.19,19,weatherlink.com 1.10,2013-10-22 13:40:00,
2013-10-22 09:55:00,44.4,38.0,29.71,SSW,192,3.0,15.0,79,0.01,,,0.19,91,weatherlink.com 1.10,2013-10-22 13:55:00,
2013-10-22 10:10:00,44.3,39.0,29.70,South,182,6.0,9.0,83,0.00,,,0.19,56,weatherlink.com 1.10,2013-10-22 14:10:00,
2013-10-22 10:25:00,44.3,39.0,29.70,North,5,2.0,10.0,81,0.00,,,0.19,100,weatherlink.com 1.10,2013-10-22 14:25:00,
2013-10-22 10:40:00,45.1,39.0,29.69,SSE,158,1.0,10.0,80,0.00,,,0.19,125,weatherlink.com 1.10,2013-10-22 14:40:00,
2013-10-22 10:55:00,45.4,39.0,29.69,NW,321,1.0,9.0,79,0.00,,,0.19,79,weatherlink.com 1.10,2013-10-22 14:55:00,
2013-10-22 11:10:00,45.6,39.0,29.69,SE,146,3.0,7.0,79,0.00,,,0.19,86,weatherlink.com 1.10,2013-10-22 15:10:00,
2013-10-22 11:25:00,46.9,41.0,29.69,ESE,111,5.0,10.0,79,0.00,,,0.19,468,weatherlink.com 1.10,2013-10-22 15:25:00,
2013-10-22 11:40:00,48.0,40.0,29.68,WSW,238,4.0,14.0,75,0.01,,,0.20,244,weatherlink.com 1.10,2013-10-22 15:40:00,
2013-10-22 11:55:00,47.6,39.0,29.69,WSW,246,4.0,11.0,71,0.01,,,0.20,113,weatherlink.com 1.10,2013-10-22 15:55:00,
2013-10-22 12:10:00,48.1,38.0,29.68,South,183,6.0,18.0,68,0.01,,,0.20,598,weatherlink.com 1.10,2013-10-22 16:10:00,
2013-10-22 12:25:00,48.8,37.0,29.68,West,263,6.0,21.0,65,0.01,,,0.20,204,weatherlink.com 1.10,2013-10-22 16:25:00,
2013-10-22 12:40:00,48.3,37.0,29.68,SW,219,11.0,18.0,65,0.00,,,0.20,165,weatherlink.com 1.10,2013-10-22 16:40:00,
2013-10-22 12:55:00,48.0,35.0,29.68,West,271,10.0,22.0,60,0.00,,,0.20,151,weatherlink.com 1.10,2013-10-22 16:55:00,
2013-10-22 13:10:00,49.9,35.0,29.68,WSW,244,8.0,26.0,57,0.00,,,0.20,547,weatherlink.com 1.10,2013-10-22 17:10:00,
2013-10-22 13:25:00,49.9,35.0,29.68,West,260,14.0,20.0,56,0.00,,,0.20,111,weatherlink.com 1.10,2013-10-22 17:25:00,
2013-10-22 13:40:00,48.3,35.0,29.68,West,265,10.0,19.0,60,0.00,,,0.20,116,weatherlink.com 1.10,2013-10-22 17:40:00,
2013-10-22 13:55:00,48.8,35.0,29.68,WSW,240,11.0,17.0,59,0.00,,,0.20,536,weatherlink.com 1.10,2013-10-22 17:55:00,
2013-10-22 14:10:00,50.3,34.0,29.67,WSW,237,14.0,21.0,54,0.00,,,0.20,485,weatherlink.com 1.10,2013-10-22 18:10:00,
2013-10-22 14:25:00,51.9,34.0,29.67,NW,311,6.0,13.0,51,0.00,,,0.20,475,weatherlink.com 1.10,2013-10-22 18:25:00,
2013-10-22 14:40:00,51.2,32.0,29.67,WNW,286,4.0,27.0,49,0.00,,,0.20,450,weatherlink.com 1.10,2013-10-22 18:40:00,
2013-10-22 14:55:00,50.9,33.0,29.67,SW,234,9.0,18.0,50,0.00,,,0.20,190,weatherlink.com 1.10,2013-10-22 18:55:00,
2013-10-22 15:10:00,49.9,32.0,29.68,West,269,8.0,18.0,50,0.00,,,0.20,142,weatherlink.com 1.10,2013-10-22 19:10:00,
2013-10-22 15:25:00,49.4,31.0,29.68,West,277,7.0,18.0,49,0.00,,,0.20,366,weatherlink.com 1.10,2013-10-22 19:25:00,
2013-10-22 15:40:00,50.9,31.0,29.68,WSW,249,13.0,18.0,46,0.00,,,0.20,318,weatherlink.com 1.10,2013-10-22 19:40:00,
2013-10-22 15:55:00,50.3,31.0,29.68,SSW,211,6.0,17.0,48,0.00,,,0.20,58,weatherlink.com 1.10,2013-10-22 19:55:00,
2013-10-22 16:10:00,50.4,30.0,29.69,SW,221,17.0,17.0,46,0.00,,,0.20,58,weatherlink.com 1.10,2013-10-22 20:10:00,
2013-10-22 16:25:00,49.7,32.0,29.70,South,171,6.0,15.0,51,0.00,,,0.20,69,weatherlink.com 1.10,2013-10-22 20:25:00,
2013-10-22 16:40:00,48.5,31.0,29.70,WNW,298,6.0,16.0,52,0.00,,,0.20,102,weatherlink.com 1.10,2013-10-22 20:40:00,
2013-10-22 16:55:00,47.4,30.0,29.71,SSW,213,8.0,21.0,52,0.00,,,0.20,77,weatherlink.com 1.10,2013-10-22 20:55:00,
2013-10-22 17:10:00,46.6,30.0,29.71,SE,138,6.0,15.0,53,0.00,,,0.20,30,weatherlink.com 1.10,2013-10-22 21:10:00,
2013-10-22 17:26:00,45.8,31.0,29.71,SSE,147,3.0,18.0,57,0.00,,,0.20,25,weatherlink.com 1.10,2013-10-22 21:26:00,
2013-10-22 17:40:00,45.1,31.0,29.71,WNW,298,4.0,14.0,59,0.00,,,0.20,14,weatherlink.com 1.10,2013-10-22 21:40:00,
2013-10-22 17:55:00,44.6,31.0,29.72,WSW,246,3.0,14.0,59,0.00,,,0.20,9,weatherlink.com 1.10,2013-10-22 21:55:00,
2013-10-22 18:10:00,44.3,31.0,29.73,SSE,161,5.0,18.0,60,0.00,,,0.20,0,weatherlink.com 1.10,2013-10-22 22:10:00,
2013-10-22 18:26:00,43.8,31.0,29.73,WSW,250,3.0,14.0,61,0.00,,,0.20,0,weatherlink.com 1.10,2013-10-22 22:26:00,
2013-10-22 18:41:00,43.2,31.0,29.73,SW,233,7.0,14.0,63,0.00,,,0.20,0,weatherlink.com 1.10,2013-10-22 22:41:00,
2013-10-22 18:56:00,43.1,32.0,29.73,SE,132,4.0,13.0,65,0.00,,,0.20,0,weatherlink.com 1.10,2013-10-22 22:56:00,
2013-10-22 19:11:00,43.2,32.0,29.73,WSW,253,5.0,12.0,64,0.00,,,0.20,0,weatherlink.com 1.10,2013-10-22 23:11:00,
2013-10-22 19:26:00,42.9,32.0,29.73,NNW,344,3.0,9.0,66,0.00,,,0.20,0,weatherlink.com 1.10,2013-10-22 23:26:00,
2013-10-22 19:41:00,42.3,32.0,29.73,SSE,156,3.0,10.0,67,0.00,,,0.20,0,weatherlink.com 1.10,2013-10-22 23:41:00,
2013-10-22 19:56:00,41.9,32.0,29.73,NE,50,4.0,7.0,69,0.00,,,0.20,0,weatherlink.com 1.10,2013-10-22 23:56:00,
2013-10-22 20:11:00,41.4,33.0,29.73,West,261,1.0,8.0,71,0.00,,,0.20,0,weatherlink.com 1.10,2013-10-23 00:11:00,
2013-10-22 20:26:00,40.8,32.0,29.73,South,186,3.0,9.0,72,0.00,,,0.20,0,weatherlink.com 1.10,2013-10-23 00:26:00,
2013-10-22 20:41:00,40.4,32.0,29.73,SSW,209,5.0,9.0,73,0.00,,,0.20,0,weatherlink.com 1.10,2013-10-23 00:41:00,
2013-10-22 20:56:00,40.1,32.0,29.73,West,268,2.0,8.0,74,0.00,,,0.20,0,weatherlink.com 1.10,2013-10-23 00:56:00,
2013-10-22 21:11:00,39.8,32.0,29.73,SW,215,3.0,7.0,74,0.00,,,0.20,0,weatherlink.com 1.10,2013-10-23 01:11:00,
2013-10-22 21:26:00,39.6,32.0,29.73,NNW,327,2.0,5.0,75,0.00,,,0.20,0,weatherlink.com 1.10,2013-10-23 01:26:00,
2013-10-22 21:41:00,39.4,32.0,29.73,SSW,212,2.0,7.0,75,0.00,,,0.20,0,weatherlink.com 1.10,2013-10-23 01:41:00,
2013-10-22 21:56:00,39.2,32.0,29.73,South,179,3.0,7.0,76,0.00,,,0.20,0,weatherlink.com 1.10,2013-10-23 01:56:00,
2013-10-22 22:11:00,39.2,32.0,29.73,WSW,252,1.0,7.0,76,0.00,,,0.20,0,weatherlink.com 1.10,2013-10-23 02:11:00,
2013-10-22 22:26:00,39.2,32.0,29.73,WNW,293,3.0,6.0,76,0.00,,,0.20,0,weatherlink.com 1.10,2013-10-23 02:26:00,
2013-10-22 22:41:00,39.1,32.0,29.72,SE,125,3.0,7.0,76,0.00,,,0.20,0,weatherlink.com 1.10,2013-10-23 02:41:00,
2013-10-22 22:56:00,39.1,32.0,29.72,ENE,76,1.0,7.0,76,0.00,,,0.20,0,weatherlink.com 1.10,2013-10-23 02:56:00,
2013-10-22 23:11:00,38.7,32.0,29.72,NW,304,1.0,7.0,77,0.00,,,0.20,0,weatherlink.com 1.10,2013-10-23 03:11:00,
2013-10-22 23:26:00,39.1,32.0,29.71,South,177,5.0,7.0,77,0.00,,,0.20,0,weatherlink.com 1.10,2013-10-23 03:26:00,
2013-10-22 23:41:00,39.5,33.0,29.71,West,274,1.0,6.0,77,0.00,,,0.20,0,weatherlink.com 1.10,2013-10-23 03:41:00,
2013-10-22 23:56:00,39.8,33.0,29.71,WSW,249,3.0,9.0,76,0.00,,,0.20,0,weatherlink.com 1.10,2013-10-23 03:56:00,